Time;durP1;ratioP1;P1;durP2;ratioP2;P2;SDS_P1;SDS_P2;PMS_P1;PMS_P2;Temp;Humidity;BMP_temperature;BMP_pressure;BME280_temperature;BME280_humidity;BME280_pressure;Samples;Min_cycle;Max_cycle;Signal;HPM_P1;HPM_P2
2022/06/17 00:00:14;;;;;;;5.18;4.78;;;;;;;;;;4982363;28;20026;-67
2022/06/17 00:02:39;;;;;;;5.63;5.10;;;;;;;;;;4980218;28;20053;-67
2022/06/17 00:05:04;;;;;;;5.22;4.80;;;;;;;;;;4987401;28;20038;-67
2022/06/17 00:07:30;;;;;;;4.78;4.47;;;;;;;;;;4987119;28;20034;-66
2022/06/17 00:09:55;;;;;;;4.93;4.53;;;;;;;;;;4980790;28;20026;-68
2022/06/17 00:12:20;;;;;;;4.65;4.30;;;;;;;;;;4982330;28;20462;-66
2022/06/17 00:17:29;;;;;;;6.85;4.57;;;;;;;;;;4981844;28;20025;-67
2022/06/17 00:19:54;;;;;;;5.00;4.60;;;;;;;;;;4978667;28;20637;-67
2022/06/17 00:22:20;;;;;;;4.60;4.25;;;;;;;;;;4979922;28;20082;-67
2022/06/17 00:24:46;;;;;;;4.72;4.32;;;;;;;;;;4980377;28;20018;-67
2022/06/17 00:27:12;;;;;;;4.50;4.13;;;;;;;;;;4984962;28;20423;-67
2022/06/17 00:29:37;;;;;;;4.45;4.15;;;;;;;;;;4981049;28;20034;-67
2022/06/17 00:32:02;;;;;;;6.50;4.75;;;;;;;;;;4984143;28;20050;-67
2022/06/17 00:34:27;;;;;;;5.60;4.55;;;;;;;;;;4980190;28;20034;-67
2022/06/17 00:36:55;;;;;;;5.07;4.55;;;;;;;;;;4983592;28;20077;-67
2022/06/17 00:39:23;;;;;;;4.63;4.22;;;;;;;;;;4987712;28;20018;-67
2022/06/17 00:41:49;;;;;;;5.65;4.57;;;;;;;;;;4984715;28;20034;-67
2022/06/17 00:44:25;;;;;;;5.07;4.75;;;;;;;;;;4980266;28;20077;-67
2022/06/17 00:46:55;;;;;;;7.07;4.97;;;;;;;;;;4985948;28;20445;-67
2022/06/17 00:49:39;;;;;;;4.85;4.45;;;;;;;;;;4987651;28;20022;-67
2022/06/17 00:52:06;;;;;;;4.90;4.50;;;;;;;;;;4981996;28;20045;-67
2022/06/17 00:54:43;;;;;;;4.88;4.45;;;;;;;;;;4980100;28;20391;-67
2022/06/17 00:57:20;;;;;;;5.93;5.43;;;;;;;;;;4978815;28;20058;-67
2022/06/17 01:00:04;;;;;;;4.53;4.22;;;;;;;;;;4985551;28;20576;-66
2022/06/17 01:02:31;;;;;;;4.85;4.38;;;;;;;;;;4977377;28;20038;-67
2022/06/17 01:04:56;;;;;;;5.22;4.88;;;;;;;;;;4978720;28;20490;-67
2022/06/17 01:07:23;;;;;;;6.05;4.80;;;;;;;;;;4977735;28;20575;-66
2022/06/17 01:10:01;;;;;;;5.40;4.90;;;;;;;;;;4980219;28;20026;-69
2022/06/17 01:12:30;;;;;;;6.85;4.82;;;;;;;;;;4977992;28;20018;-67
2022/06/17 01:14:57;;;;;;;5.85;5.43;;;;;;;;;;4983007;28;20026;-68
2022/06/17 01:17:22;;;;;;;5.50;5.10;;;;;;;;;;4986768;28;20071;-67
2022/06/17 01:19:49;;;;;;;5.40;5.00;;;;;;;;;;4982201;28;20431;-66
2022/06/17 01:22:27;;;;;;;5.63;5.10;;;;;;;;;;4978805;28;20034;-67
2022/06/17 01:24:56;;;;;;;6.10;5.57;;;;;;;;;;4985242;28;20070;-67
2022/06/17 01:27:22;;;;;;;6.78;5.00;;;;;;;;;;4985786;28;20029;-67
2022/06/17 01:29:48;;;;;;;6.22;5.63;;;;;;;;;;4980205;28;20584;-67
2022/06/17 01:32:15;;;;;;;8.18;4.57;;;;;;;;;;4978751;28;20077;-66
2022/06/17 01:34:40;;;;;;;4.80;4.45;;;;;;;;;;4986091;28;20051;-65
2022/06/17 01:37:07;;;;;;;5.50;5.20;;;;;;;;;;4976888;28;20039;-68
2022/06/17 01:39:32;;;;;;;4.82;4.53;;;;;;;;;;4980160;28;20100;-67
2022/06/17 01:41:57;;;;;;;5.63;5.20;;;;;;;;;;4980265;28;20050;-68
2022/06/17 01:44:33;;;;;;;5.97;4.65;;;;;;;;;;4979789;28;20542;-67
2022/06/17 01:47:01;;;;;;;5.60;5.20;;;;;;;;;;4980088;28;20073;-66
2022/06/17 01:49:30;;;;;;;5.35;4.95;;;;;;;;;;4979958;28;20113;-67
2022/06/17 01:51:57;;;;;;;5.00;4.70;;;;;;;;;;4983592;28;20026;-68
2022/06/17 01:54:25;;;;;;;5.72;5.15;;;;;;;;;;4979215;28;20533;-68
2022/06/17 01:56:52;;;;;;;5.15;4.70;;;;;;;;;;4984378;28;20027;-68
2022/06/17 01:59:32;;;;;;;5.53;5.10;;;;;;;;;;4978374;28;20502;-68
2022/06/17 02:02:00;;;;;;;5.60;5.00;;;;;;;;;;4976483;28;20113;-68
2022/06/17 02:04:31;;;;;;;5.78;5.05;;;;;;;;;;4978405;28;20527;-68
2022/06/17 02:06:58;;;;;;;6.32;5.57;;;;;;;;;;4978635;28;20370;-67
2022/06/17 02:09:24;;;;;;;6.35;5.88;;;;;;;;;;4978260;28;20112;-69
2022/06/17 02:11:49;;;;;;;5.75;5.18;;;;;;;;;;4982369;28;20022;-68
2022/06/17 02:14:15;;;;;;;5.75;5.00;;;;;;;;;;4985018;28;20034;-67
2022/06/17 02:16:41;;;;;;;5.18;4.75;;;;;;;;;;4978908;28;20030;-67
2022/06/17 02:19:07;;;;;;;5.28;4.78;;;;;;;;;;4978807;28;21057;-68
2022/06/17 02:21:38;;;;;;;5.70;5.30;;;;;;;;;;4978190;28;20049;-67
2022/06/17 02:24:04;;;;;;;5.25;4.88;;;;;;;;;;4983476;28;20504;-67
2022/06/17 02:26:32;;;;;;;6.70;4.93;;;;;;;;;;4977384;28;20480;-67
2022/06/17 02:28:58;;;;;;;6.10;5.30;;;;;;;;;;4978777;28;20812;-68
2022/06/17 02:31:23;;;;;;;6.57;6.07;;;;;;;;;;4978315;28;20039;-68
2022/06/17 02:33:51;;;;;;;7.00;5.95;;;;;;;;;;4977248;28;20467;-67
2022/06/17 02:36:20;;;;;;;6.80;6.10;;;;;;;;;;4977666;28;20387;-67
2022/06/17 02:38:45;;;;;;;7.25;6.55;;;;;;;;;;4979519;28;20085;-67
2022/06/17 02:41:12;;;;;;;6.75;6.15;;;;;;;;;;4983505;28;20022;-66
2022/06/17 02:43:39;;;;;;;5.68;5.18;;;;;;;;;;4978007;28;20081;-67
2022/06/17 02:46:07;;;;;;;7.78;5.68;;;;;;;;;;4977790;28;20046;-67
2022/06/17 02:48:58;;;;;;;6.63;6.07;;;;;;;;;;4981160;28;20023;-68
2022/06/17 02:51:25;;;;;;;6.55;5.53;;;;;;;;;;4919743;29;20194;-68
2022/06/17 02:53:51;;;;;;;6.47;5.88;;;;;;;;;;4919726;29;20060;-68
2022/06/17 02:56:18;;;;;;;5.57;5.18;;;;;;;;;;4920826;29;20103;-66
2022/06/17 02:58:43;;;;;;;6.03;5.63;;;;;;;;;;4923008;29;20147;-66
2022/06/17 03:01:16;;;;;;;5.63;5.13;;;;;;;;;;4919499;29;20449;-66
2022/06/17 03:03:42;;;;;;;6.03;5.47;;;;;;;;;;4923249;29;21068;-66
2022/06/17 03:06:11;;;;;;;5.55;5.13;;;;;;;;;;4923784;29;20537;-68
2022/06/17 03:08:38;;;;;;;6.32;5.72;;;;;;;;;;4929960;29;20040;-67
2022/06/17 03:11:04;;;;;;;6.53;6.03;;;;;;;;;;4926989;29;20030;-66
2022/06/17 03:13:29;;;;;;;9.45;5.78;;;;;;;;;;4923060;29;20537;-68
2022/06/17 03:15:57;;;;;;;5.97;5.57;;;;;;;;;;4924160;29;20042;-66
2022/06/17 03:18:23;;;;;;;6.57;6.07;;;;;;;;;;4929537;29;20156;-69
2022/06/17 03:20:49;;;;;;;6.38;5.85;;;;;;;;;;4924556;29;20557;-68
2022/06/17 03:23:23;;;;;;;6.03;5.53;;;;;;;;;;4924172;29;20702;-67
2022/06/17 03:25:55;;;;;;;6.15;5.65;;;;;;;;;;4926149;29;20023;-66
2022/06/17 03:28:25;;;;;;;6.30;5.80;;;;;;;;;;4959210;28;20034;-68
2022/06/17 03:31:08;;;;;;;6.55;5.95;;;;;;;;;;4981422;28;20018;-67
2022/06/17 03:33:37;;;;;;;11.50;6.63;;;;;;;;;;4980064;28;20112;-67
2022/06/17 03:36:10;;;;;;;5.93;5.43;;;;;;;;;;4980533;28;20686;-67
2022/06/17 03:38:47;;;;;;;5.72;5.32;;;;;;;;;;4984102;28;20181;-66
2022/06/17 03:41:16;;;;;;;6.28;5.68;;;;;;;;;;4983353;28;20080;-68
2022/06/17 03:44:08;;;;;;;6.22;5.68;;;;;;;;;;4982142;28;20149;-66
2022/06/17 03:46:43;;;;;;;7.13;5.95;;;;;;;;;;4973917;28;20030;-67
2022/06/17 03:49:08;;;;;;;;;;;;;;;;;;4994178;28;20391;-64
2022/06/17 03:51:35;;;;;;;6.18;5.40;;;;;;;;;;4985037;28;20293;-67
2022/06/17 03:54:00;;;;;;;6.30;5.80;;;;;;;;;;4985845;28;20156;-67
2022/06/17 03:56:31;;;;;;;7.15;6.47;;;;;;;;;;4992197;28;20046;-67
2022/06/17 03:58:57;;;;;;;8.25;7.40;;;;;;;;;;4987986;28;20022;-66
2022/06/17 04:01:31;;;;;;;7.80;7.07;;;;;;;;;;4985534;28;20467;-67
2022/06/17 04:03:58;;;;;;;6.93;6.40;;;;;;;;;;4987329;28;20058;-67
2022/06/17 04:06:25;;;;;;;8.07;7.38;;;;;;;;;;4986259;28;21111;-66
2022/06/17 04:09:00;;;;;;;7.20;6.60;;;;;;;;;;4980546;28;20018;-66
2022/06/17 04:11:27;;;;;;;8.10;7.40;;;;;;;;;;4980454;28;20477;-66
2022/06/17 04:13:53;;;;;;;6.80;6.20;;;;;;;;;;4984571;28;20096;-66
2022/06/17 04:16:39;;;;;;;7.75;6.65;;;;;;;;;;4973880;28;20026;-67
2022/06/17 04:19:23;;;;;;;8.50;6.90;;;;;;;;;;4960369;28;20468;-66
2022/06/17 04:21:49;;;;;;;7.65;7.07;;;;;;;;;;4981653;28;20105;-66
2022/06/17 04:24:16;;;;;;;6.70;6.03;;;;;;;;;;4985367;28;20054;-67
2022/06/17 04:26:42;;;;;;;6.70;6.20;;;;;;;;;;4980507;28;20026;-66
2022/06/17 04:29:11;;;;;;;7.28;6.68;;;;;;;;;;4981680;28;20467;-66
2022/06/17 04:31:36;;;;;;;7.05;6.55;;;;;;;;;;4981155;28;20372;-66
2022/06/17 04:34:04;;;;;;;6.72;6.13;;;;;;;;;;4986830;28;20037;-67
2022/06/17 04:36:33;;;;;;;6.18;5.38;;;;;;;;;;4985046;28;20454;-67
2022/06/17 04:39:04;;;;;;;7.90;7.20;;;;;;;;;;4978940;28;20030;-67
2022/06/17 04:41:32;;;;;;;5.97;5.43;;;;;;;;;;4997728;28;20031;-66
2022/06/17 04:43:58;;;;;;;6.40;5.78;;;;;;;;;;4986669;28;20156;-67
2022/06/17 04:46:32;;;;;;;6.05;5.55;;;;;;;;;;4981910;28;20137;-66
2022/06/17 04:48:57;;;;;;;7.03;5.70;;;;;;;;;;4979993;28;20063;-66
2022/06/17 04:51:24;;;;;;;6.18;4.85;;;;;;;;;;4983829;28;20553;-66
2022/06/17 04:53:49;;;;;;;5.78;5.32;;;;;;;;;;4987531;28;20030;-67
2022/06/17 04:56:41;;;;;;;5.50;5.05;;;;;;;;;;4981926;28;20446;-66
2022/06/17 04:59:25;;;;;;;6.05;5.55;;;;;;;;;;4979060;28;20116;-66
2022/06/17 05:01:51;;;;;;;6.93;6.10;;;;;;;;;;4985725;28;20395;-66
2022/06/17 05:04:17;;;;;;;6.60;5.85;;;;;;;;;;4985859;28;20053;-68
2022/06/17 05:06:42;;;;;;;7.40;6.65;;;;;;;;;;4980615;28;20026;-68
2022/06/17 05:09:15;;;;;;;8.48;6.57;;;;;;;;;;4981509;28;20030;-66
2022/06/17 05:11:43;;;;;;;9.70;6.38;;;;;;;;;;4987177;28;20032;-66
2022/06/17 05:14:22;;;;;;;10.90;7.18;;;;;;;;;;4983714;28;20035;-66
2022/06/17 05:16:47;;;;;;;9.65;6.15;;;;;;;;;;4980015;28;20060;-68
2022/06/17 05:19:13;;;;;;;8.80;7.13;;;;;;;;;;4979353;28;20563;-66
2022/06/17 05:21:38;;;;;;;6.55;6.05;;;;;;;;;;4981086;28;20076;-66
2022/06/17 05:24:03;;;;;;;9.45;6.07;;;;;;;;;;4982355;28;20363;-66
2022/06/17 05:26:30;;;;;;;6.00;5.50;;;;;;;;;;4980073;28;20031;-66
2022/06/17 05:28:55;;;;;;;6.63;6.03;;;;;;;;;;4985379;28;20108;-66
2022/06/17 05:31:22;;;;;;;9.45;5.70;;;;;;;;;;4986417;28;20586;-66
2022/06/17 05:33:48;;;;;;;5.63;5.00;;;;;;;;;;4981496;28;20056;-66
2022/06/17 05:36:14;;;;;;;7.90;5.55;;;;;;;;;;4978916;28;20562;-66
2022/06/17 05:38:39;;;;;;;10.65;5.95;;;;;;;;;;4986457;28;20033;-65
2022/06/17 05:41:05;;;;;;;6.40;5.80;;;;;;;;;;4985023;28;20448;-66
2022/06/17 05:43:31;;;;;;;7.90;6.03;;;;;;;;;;4970959;28;20404;-68
2022/06/17 05:45:56;;;;;;;9.40;6.15;;;;;;;;;;4961761;28;20034;-67
2022/06/17 05:48:21;;;;;;;6.72;5.53;;;;;;;;;;4965306;28;20031;-68
2022/06/17 05:50:46;;;;;;;9.18;4.97;;;;;;;;;;4967609;28;20547;-67
2022/06/17 05:53:13;;;;;;;6.82;6.07;;;;;;;;;;4960535;28;20384;-67
2022/06/17 05:55:38;;;;;;;5.70;5.25;;;;;;;;;;4962259;28;20022;-68
2022/06/17 05:58:04;;;;;;;6.28;5.72;;;;;;;;;;4969256;28;20025;-68
2022/06/17 06:00:31;;;;;;;5.93;5.43;;;;;;;;;;4966290;28;20484;-66
2022/06/17 06:02:57;;;;;;;12.80;5.88;;;;;;;;;;4960225;28;20391;-67
2022/06/17 06:05:24;;;;;;;7.18;5.50;;;;;;;;;;4960359;28;20047;-66
2022/06/17 06:07:49;;;;;;;7.03;6.03;;;;;;;;;;4961657;28;20038;-64
2022/06/17 06:10:14;;;;;;;6.43;5.63;;;;;;;;;;4959691;28;20070;-64
2022/06/17 06:13:00;;;;;;;6.53;5.57;;;;;;;;;;4961048;28;20031;-67
2022/06/17 06:15:42;;;;;;;6.22;5.63;;;;;;;;;;4964780;28;20035;-67
2022/06/17 06:18:08;;;;;;;6.75;6.15;;;;;;;;;;4958829;28;20027;-67
2022/06/17 06:20:33;;;;;;;6.88;5.38;;;;;;;;;;4959482;28;20365;-67
2022/06/17 06:22:59;;;;;;;5.70;5.20;;;;;;;;;;4959085;28;20054;-65
2022/06/17 06:25:24;;;;;;;6.00;5.18;;;;;;;;;;4966529;28;20070;-66
2022/06/17 06:27:49;;;;;;;6.55;5.53;;;;;;;;;;4966433;28;20067;-67
2022/06/17 06:30:20;;;;;;;6.13;5.53;;;;;;;;;;4962340;28;20113;-66
2022/06/17 06:32:46;;;;;;;5.80;5.30;;;;;;;;;;4960088;28;21012;-67
2022/06/17 06:35:13;;;;;;;6.38;5.28;;;;;;;;;;4940892;28;20037;-68
2022/06/17 06:37:39;;;;;;;5.93;5.35;;;;;;;;;;4966183;28;20054;-66
2022/06/17 06:40:04;;;;;;;5.55;5.15;;;;;;;;;;4960564;28;20693;-67
2022/06/17 06:42:30;;;;;;;11.00;5.53;;;;;;;;;;4959001;28;20019;-68
2022/06/17 06:44:55;;;;;;;5.57;5.07;;;;;;;;;;4984264;28;20046;-67
2022/06/17 06:47:21;;;;;;;6.50;5.80;;;;;;;;;;4984282;28;20027;-66
2022/06/17 06:49:46;;;;;;;7.03;6.10;;;;;;;;;;4977712;28;20023;-66
2022/06/17 06:52:11;;;;;;;9.18;5.57;;;;;;;;;;4979074;28;20053;-67
2022/06/17 06:54:37;;;;;;;6.05;5.18;;;;;;;;;;4983894;28;20026;-67
2022/06/17 06:57:02;;;;;;;8.32;5.47;;;;;;;;;;4982439;28;20045;-67
2022/06/17 06:59:27;;;;;;;8.75;5.85;;;;;;;;;;4974708;28;20491;-64
2022/06/17 07:01:53;;;;;;;6.90;5.95;;;;;;;;;;4977951;28;20027;-65
2022/06/17 07:04:18;;;;;;;5.75;5.25;;;;;;;;;;4984238;28;20535;-67
2022/06/17 07:06:44;;;;;;;6.72;5.13;;;;;;;;;;4981911;28;20552;-67
2022/06/17 07:09:12;;;;;;;5.78;5.38;;;;;;;;;;4977133;28;20636;-66
2022/06/17 07:11:38;;;;;;;5.70;5.25;;;;;;;;;;4995195;28;20026;-67
2022/06/17 07:14:03;;;;;;;6.30;5.72;;;;;;;;;;4978684;28;20033;-67
2022/06/17 07:16:28;;;;;;;8.02;6.43;;;;;;;;;;4978569;28;20110;-66
2022/06/17 07:18:54;;;;;;;6.60;5.80;;;;;;;;;;4978201;28;20038;-68
2022/06/17 07:21:19;;;;;;;6.60;6.00;;;;;;;;;;4982024;28;20022;-68
2022/06/17 07:23:45;;;;;;;6.25;5.72;;;;;;;;;;4984791;28;20042;-68
2022/06/17 07:26:16;;;;;;;8.70;5.53;;;;;;;;;;4980805;28;20053;-68
2022/06/17 07:28:42;;;;;;;7.90;5.32;;;;;;;;;;4976747;28;20030;-71
2022/06/17 07:31:07;;;;;;;14.02;5.28;;;;;;;;;;4977810;28;20085;-68
2022/06/17 07:33:34;;;;;;;5.18;4.70;;;;;;;;;;4984126;28;20424;-67
2022/06/17 07:36:01;;;;;;;6.22;5.72;;;;;;;;;;4979543;28;20035;-66
2022/06/17 07:41:15;;;;;;;6.05;5.10;;;;;;;;;;4982932;28;20396;-66
2022/06/17 07:43:40;;;;;;;6.85;5.30;;;;;;;;;;4983213;28;20061;-66
2022/06/17 07:46:06;;;;;;;4.93;4.55;;;;;;;;;;4975727;28;20026;-67
2022/06/17 07:48:32;;;;;;;5.65;5.25;;;;;;;;;;4979723;28;20018;-67
2022/06/17 07:51:00;;;;;;;6.15;5.65;;;;;;;;;;4987819;28;20022;-66
2022/06/17 07:53:29;;;;;;;5.35;4.95;;;;;;;;;;4986611;28;20034;-66
2022/06/17 07:55:56;;;;;;;5.82;5.32;;;;;;;;;;4979122;28;20136;-66
2022/06/17 07:58:21;;;;;;;5.53;5.00;;;;;;;;;;4982140;28;20044;-66
2022/06/17 08:00:47;;;;;;;5.95;5.55;;;;;;;;;;4983957;28;20430;-65
2022/06/17 08:03:13;;;;;;;5.15;4.75;;;;;;;;;;4982836;28;20038;-66
2022/06/17 08:05:43;;;;;;;6.15;5.63;;;;;;;;;;4978711;28;20283;-66
2022/06/17 08:08:09;;;;;;;6.30;5.68;;;;;;;;;;4980685;28;20026;-67
2022/06/17 08:10:35;;;;;;;5.50;5.00;;;;;;;;;;4980552;28;20532;-67
2022/06/17 08:13:01;;;;;;;6.60;6.00;;;;;;;;;;4980902;28;20046;-67
2022/06/17 08:15:27;;;;;;;6.93;6.28;;;;;;;;;;4981435;28;20022;-67
2022/06/17 08:17:52;;;;;;;6.20;5.60;;;;;;;;;;4982512;28;20600;-67
2022/06/17 08:20:23;;;;;;;6.10;5.55;;;;;;;;;;4985861;28;20030;-67
2022/06/17 08:22:48;;;;;;;9.43;5.40;;;;;;;;;;4981553;28;20026;-67
2022/06/17 08:25:14;;;;;;;6.28;5.70;;;;;;;;;;4980469;28;20077;-67
2022/06/17 08:27:42;;;;;;;6.32;5.80;;;;;;;;;;4980761;28;20890;-67
2022/06/17 08:30:08;;;;;;;7.82;5.50;;;;;;;;;;4981161;28;20034;-66
2022/06/17 08:32:45;;;;;;;6.18;5.00;;;;;;;;;;4978872;28;20354;-68
2022/06/17 08:35:11;;;;;;;6.65;5.45;;;;;;;;;;4981657;28;20516;-67
2022/06/17 08:37:37;;;;;;;6.93;5.18;;;;;;;;;;4985818;28;20034;-66
2022/06/17 08:40:05;;;;;;;11.43;5.50;;;;;;;;;;4984996;28;20525;-69
2022/06/17 08:42:30;;;;;;;6.97;5.20;;;;;;;;;;4979712;28;20030;-69
2022/06/17 08:45:05;;;;;;;5.70;5.18;;;;;;;;;;4980987;28;20037;-68
2022/06/17 08:47:39;;;;;;;7.05;5.10;;;;;;;;;;4985637;28;20577;-69
2022/06/17 08:50:10;;;;;;;8.38;6.05;;;;;;;;;;4981686;28;20042;-64
2022/06/17 08:52:50;;;;;;;6.53;5.80;;;;;;;;;;4979482;28;20039;-72
2022/06/17 08:55:27;;;;;;;5.68;5.30;;;;;;;;;;4983451;28;20073;-72
2022/06/17 08:58:11;;;;;;;8.55;5.88;;;;;;;;;;4986463;28;20064;-72
2022/06/17 09:00:36;;;;;;;5.75;5.25;;;;;;;;;;4980074;28;20077;-73
2022/06/17 09:03:18;;;;;;;7.25;5.13;;;;;;;;;;4978989;28;20118;-73
2022/06/17 09:05:49;;;;;;;6.68;6.15;;;;;;;;;;4979706;28;20128;-72
2022/06/17 09:08:20;;;;;;;6.18;5.25;;;;;;;;;;4983431;28;20027;-72
2022/06/17 09:10:57;;;;;;;5.60;5.13;;;;;;;;;;4979633;28;20494;-72
2022/06/17 09:13:39;;;;;;;6.70;5.70;;;;;;;;;;4983251;28;20034;-72
2022/06/17 09:16:10;;;;;;;6.53;5.93;;;;;;;;;;4980711;28;20034;-70
2022/06/17 09:18:41;;;;;;;6.18;5.68;;;;;;;;;;4979670;28;20288;-70
2022/06/17 09:21:14;;;;;;;5.70;5.20;;;;;;;;;;4993497;28;20061;-70
2022/06/17 09:23:40;;;;;;;5.97;5.35;;;;;;;;;;4979159;28;20049;-70
2022/06/17 09:26:19;;;;;;;6.05;5.00;;;;;;;;;;4980298;28;20066;-71
2022/06/17 09:28:54;;;;;;;5.65;5.15;;;;;;;;;;4979798;28;20085;-71
2022/06/17 09:31:22;;;;;;;6.25;5.75;;;;;;;;;;4976913;28;20030;-63
2022/06/17 09:34:17;;;;;;;5.20;4.70;;;;;;;;;;4984903;28;20026;-75
2022/06/17 09:37:03;;;;;;;6.53;5.80;;;;;;;;;;4944144;28;20054;-75
2022/06/17 09:39:34;;;;;;;6.93;6.20;;;;;;;;;;4927598;28;20185;-75
2022/06/17 09:42:03;;;;;;;6.22;5.50;;;;;;;;;;4946432;28;20050;-74
2022/06/17 09:44:37;;;;;;;5.20;4.72;;;;;;;;;;4947286;28;20062;-74
2022/06/17 09:47:05;;;;;;;7.18;4.60;;;;;;;;;;4943767;28;20393;-74
2022/06/17 09:49:37;;;;;;;5.28;4.78;;;;;;;;;;4928713;28;20026;-75
2022/06/17 09:52:02;;;;;;;6.47;5.88;;;;;;;;;;4945662;28;20035;-74
2022/06/17 09:54:42;;;;;;;8.15;6.50;;;;;;;;;;4945570;28;20476;-75
2022/06/17 09:57:14;;;;;;;22.90;17.15;;;;;;;;;;4929214;28;20055;-72
2022/06/17 09:59:48;;;;;;;5.60;5.25;;;;;;;;;;4947169;28;20118;-73
2022/06/17 10:02:19;;;;;;;5.63;5.13;;;;;;;;;;4948370;28;20030;-76
2022/06/17 10:04:44;;;;;;;5.82;5.32;;;;;;;;;;4941164;28;20256;-75
2022/06/17 10:07:22;;;;;;;6.78;5.60;;;;;;;;;;4943371;28;20066;-74
2022/06/17 10:09:48;;;;;;;5.72;5.20;;;;;;;;;;4949655;28;20533;-74
2022/06/17 10:12:13;;;;;;;5.40;5.00;;;;;;;;;;4955683;28;20030;-75
2022/06/17 10:14:57;;;;;;;5.70;4.85;;;;;;;;;;4979416;28;20031;-75
2022/06/17 10:20:12;;;;;;;5.25;4.75;;;;;;;;;;4985622;28;20069;-73
2022/06/17 10:22:41;;;;;;;6.13;5.13;;;;;;;;;;4982654;28;20053;-75
2022/06/17 10:25:12;;;;;;;5.55;5.18;;;;;;;;;;4979648;28;20506;-75
2022/06/17 10:27:56;;;;;;;6.28;5.03;;;;;;;;;;4980038;28;20444;-74
2022/06/17 10:30:24;;;;;;;12.18;5.10;;;;;;;;;;4979632;28;20475;-68
2022/06/17 10:32:51;;;;;;;5.78;5.28;;;;;;;;;;4977717;28;20483;-67
2022/06/17 10:35:24;;;;;;;6.40;4.70;;;;;;;;;;4976608;28;20402;-73
2022/06/17 10:37:49;;;;;;;5.78;5.10;;;;;;;;;;4982957;28;20117;-70
2022/06/17 10:40:16;;;;;;;5.40;4.90;;;;;;;;;;4980103;28;20113;-74
2022/06/17 10:42:46;;;;;;;5.30;5.00;;;;;;;;;;4976836;28;20109;-71
2022/06/17 10:45:13;;;;;;;6.97;5.00;;;;;;;;;;4992946;28;20129;-70
2022/06/17 10:47:39;;;;;;;5.32;4.93;;;;;;;;;;4981695;28;20029;-71
2022/06/17 10:50:16;;;;;;;5.45;4.95;;;;;;;;;;4978500;28;20597;-74
2022/06/17 10:52:48;;;;;;;6.93;5.43;;;;;;;;;;4978088;28;20157;-71
2022/06/17 10:55:18;;;;;;;6.30;5.70;;;;;;;;;;4994432;28;20038;-73
2022/06/17 10:58:03;;;;;;;5.90;5.35;;;;;;;;;;4984453;28;20018;-71
2022/06/17 11:00:28;;;;;;;;;;;;;;;;;;4981742;28;20361;-66
2022/06/17 11:02:53;;;;;;;5.28;4.60;;;;;;;;;;4976734;28;19960;-69
2022/06/17 11:05:34;;;;;;;5.45;5.03;;;;;;;;;;4976328;28;20510;-70
2022/06/17 11:08:00;;;;;;;6.72;5.05;;;;;;;;;;4984300;28;20041;-73
2022/06/17 11:10:27;;;;;;;4.85;4.30;;;;;;;;;;4978610;28;20117;-73
2022/06/17 11:12:52;;;;;;;5.30;4.88;;;;;;;;;;4976747;28;20056;-73
2022/06/17 11:15:23;;;;;;;5.40;5.00;;;;;;;;;;4982205;28;20041;-72
2022/06/17 11:17:50;;;;;;;5.70;5.22;;;;;;;;;;4982879;28;20943;-74
2022/06/17 11:20:15;;;;;;;5.40;4.97;;;;;;;;;;4978202;28;20034;-73
2022/06/17 11:22:41;;;;;;;5.30;4.88;;;;;;;;;;4978805;28;20060;-74
2022/06/17 11:25:18;;;;;;;5.93;4.65;;;;;;;;;;4989016;28;20062;-73
2022/06/17 11:27:50;;;;;;;5.88;5.35;;;;;;;;;;4986777;28;20058;-73
2022/06/17 11:30:23;;;;;;;5.93;5.22;;;;;;;;;;4981399;28;20035;-74
2022/06/17 11:32:50;;;;;;;5.85;4.93;;;;;;;;;;4978947;28;20046;-73
2022/06/17 11:35:17;;;;;;;6.10;4.75;;;;;;;;;;4980302;28;20109;-72
2022/06/17 11:37:45;;;;;;;8.38;5.03;;;;;;;;;;4979455;28;20343;-74
2022/06/17 11:40:19;;;;;;;6.95;4.70;;;;;;;;;;4986589;28;20109;-73
2022/06/17 11:42:52;;;;;;;5.45;5.05;;;;;;;;;;4984738;28;20018;-74
2022/06/17 11:45:21;;;;;;;5.30;4.90;;;;;;;;;;4979684;28;20287;-74
2022/06/17 11:47:49;;;;;;;5.38;4.95;;;;;;;;;;4982695;28;20037;-75
2022/06/17 11:50:25;;;;;;;5.90;4.78;;;;;;;;;;4980395;28;20201;-72
2022/06/17 11:52:58;;;;;;;5.53;4.85;;;;;;;;;;4980352;28;20033;-70
2022/06/17 11:55:28;;;;;;;5.35;4.63;;;;;;;;;;4979940;28;20069;-69
2022/06/17 11:57:53;;;;;;;6.18;4.70;;;;;;;;;;4986636;28;20088;-69
2022/06/17 12:00:18;;;;;;;4.60;4.13;;;;;;;;;;4983703;28;20034;-69
2022/06/17 12:03:00;;;;;;;10.52;4.40;;;;;;;;;;4979557;28;20022;-70
2022/06/17 12:05:27;;;;;;;4.88;4.10;;;;;;;;;;4980064;28;20042;-70
2022/06/17 12:07:56;;;;;;;5.85;5.35;;;;;;;;;;4986213;28;20030;-68
2022/06/17 12:10:33;;;;;;;4.95;4.43;;;;;;;;;;5000058;28;20417;-68
2022/06/17 12:13:01;;;;;;;5.97;4.72;;;;;;;;;;4981249;28;20435;-68
2022/06/17 12:15:34;;;;;;;5.20;4.40;;;;;;;;;;4994640;28;20030;-69
2022/06/17 12:18:00;;;;;;;7.82;4.93;;;;;;;;;;4980425;28;20049;-69
2022/06/17 12:20:44;;;;;;;7.70;4.82;;;;;;;;;;4984681;28;20026;-69
2022/06/17 12:23:25;;;;;;;4.53;4.13;;;;;;;;;;4979013;28;20109;-69
2022/06/17 12:25:53;;;;;;;7.13;3.97;;;;;;;;;;4983923;28;20488;-68
2022/06/17 12:28:32;;;;;;;5.53;5.03;;;;;;;;;;4978186;28;20490;-69
2022/06/17 12:31:13;;;;;;;4.32;3.67;;;;;;;;;;4980190;28;20119;-70
2022/06/17 12:33:42;;;;;;;5.65;4.40;;;;;;;;;;4981224;28;20034;-68
2022/06/17 12:36:16;;;;;;;4.95;4.45;;;;;;;;;;4993163;28;20132;-69
2022/06/17 12:38:41;;;;;;;4.22;3.85;;;;;;;;;;4988360;28;20045;-69
2022/06/17 12:41:13;;;;;;;4.63;4.20;;;;;;;;;;4984002;28;20030;-69
2022/06/17 12:44:04;;;;;;;4.20;3.80;;;;;;;;;;4983981;28;20142;-69
2022/06/17 12:46:39;;;;;;;6.00;4.18;;;;;;;;;;4988290;28;20041;-71
2022/06/17 12:55:05;;;;;;;6.05;4.53;;;;;;;;;;4920235;29;20042;-70
2022/06/17 12:57:42;;;;;;;4.65;4.28;;;;;;;;;;4922329;29;20078;-73
2022/06/17 13:00:18;;;;;;;4.07;3.80;;;;;;;;;;4920016;29;20410;-71
2022/06/17 13:03:02;;;;;;;4.43;4.05;;;;;;;;;;4923460;29;20098;-71
2022/06/17 13:05:33;;;;;;;4.15;3.80;;;;;;;;;;4920555;29;20048;-70
2022/06/17 13:08:01;;;;;;;4.90;4.28;;;;;;;;;;4918899;29;20038;-69
2022/06/17 13:10:53;;;;;;;5.50;4.57;;;;;;;;;;4919833;29;20135;-70
2022/06/17 13:13:37;;;;;;;4.93;4.63;;;;;;;;;;4834623;29;20080;-73
2022/06/17 13:16:02;;;;;;;4.55;4.10;;;;;;;;;;4833288;29;20798;-67
2022/06/17 13:18:33;;;;;;;4.78;3.95;;;;;;;;;;4826978;29;20080;-68
2022/06/17 13:20:58;;;;;;;4.50;3.60;;;;;;;;;;4827050;29;20034;-68
2022/06/17 13:23:42;;;;;;;6.95;4.90;;;;;;;;;;4825053;29;20454;-68
2022/06/17 13:26:17;;;;;;;38.23;23.43;;;;;;;;;;4814693;29;20409;-69
2022/06/17 13:28:42;;;;;;;4.45;4.13;;;;;;;;;;4858028;29;20036;-68
2022/06/17 13:31:13;;;;;;;5.63;4.43;;;;;;;;;;4901173;29;20036;-68
2022/06/17 13:33:59;;;;;;;6.85;3.50;;;;;;;;;;4898531;29;20083;-68
2022/06/17 13:36:49;;;;;;;4.90;3.70;;;;;;;;;;4903729;29;20541;-69
2022/06/17 13:39:17;;;;;;;4.20;3.80;;;;;;;;;;4906801;29;20506;-69
2022/06/17 13:41:48;;;;;;;4.35;3.95;;;;;;;;;;4899145;29;20423;-69
2022/06/17 13:44:25;;;;;;;4.50;3.58;;;;;;;;;;4896223;29;20048;-69
2022/06/17 13:46:53;;;;;;;3.72;3.30;;;;;;;;;;4900573;29;20040;-69
2022/06/17 13:49:37;;;;;;;5.03;3.40;;;;;;;;;;4910370;28;20034;-69
2022/06/17 13:52:18;;;;;;;4.10;3.42;;;;;;;;;;4977207;28;20030;-69
2022/06/17 13:54:53;;;;;;;4.32;4.03;;;;;;;;;;4978194;28;20042;-69
2022/06/17 13:57:18;;;;;;;;;;;;;;;;;;4985073;28;20535;-69
2022/06/17 13:59:47;;;;;;;4.33;3.93;;;;;;;;;;4981524;28;19920;-69
2022/06/17 14:02:12;;;;;;;6.90;4.07;;;;;;;;;;4978380;28;20890;-69
2022/06/17 14:05:11;;;;;;;5.10;4.03;;;;;;;;;;4980829;28;20042;-69
2022/06/17 14:07:54;;;;;;;4.28;3.78;;;;;;;;;;4959020;28;20039;-69
2022/06/17 14:10:27;;;;;;;3.90;3.50;;;;;;;;;;4977677;28;20447;-69
2022/06/17 14:12:53;;;;;;;3.83;3.53;;;;;;;;;;4983307;28;20026;-69
2022/06/17 14:15:21;;;;;;;4.45;4.05;;;;;;;;;;4981880;28;20041;-69
2022/06/17 14:17:49;;;;;;;3.83;3.30;;;;;;;;;;4977513;28;20654;-71
2022/06/17 14:20:25;;;;;;;4.20;3.80;;;;;;;;;;4977741;28;20026;-69
2022/06/17 14:23:05;;;;;;;4.40;3.70;;;;;;;;;;4981715;28;20497;-69
2022/06/17 14:25:49;;;;;;;6.47;3.50;;;;;;;;;;4983751;28;20044;-69
2022/06/17 14:28:30;;;;;;;4.45;3.47;;;;;;;;;;4979302;28;20340;-68
2022/06/17 14:31:10;;;;;;;4.18;3.80;;;;;;;;;;4977132;28;20038;-68
2022/06/17 14:33:40;;;;;;;4.80;3.92;;;;;;;;;;4978065;28;20136;-69
2022/06/17 14:36:13;;;;;;;3.92;3.65;;;;;;;;;;4977956;28;20528;-69
2022/06/17 14:38:41;;;;;;;5.30;3.60;;;;;;;;;;4977563;28;20034;-68
2022/06/17 14:43:50;;;;;;;3.67;3.47;;;;;;;;;;4971103;28;20069;-68
2022/06/17 14:46:15;;;;;;;3.78;3.47;;;;;;;;;;4960084;28;20031;-69
2022/06/17 14:48:49;;;;;;;3.92;3.40;;;;;;;;;;4958900;28;20081;-69
2022/06/17 14:51:18;;;;;;;7.18;3.60;;;;;;;;;;4962157;28;20030;-68
2022/06/17 14:53:56;;;;;;;4.88;4.07;;;;;;;;;;4965141;28;21008;-69
2022/06/17 14:56:32;;;;;;;3.80;3.50;;;;;;;;;;4961610;28;20034;-70
2022/06/17 14:58:58;;;;;;;4.28;3.83;;;;;;;;;;4958968;28;20034;-69
2022/06/17 15:01:29;;;;;;;4.53;3.78;;;;;;;;;;4961400;28;20031;-69
2022/06/17 15:04:06;;;;;;;4.00;3.67;;;;;;;;;;4958491;28;20039;-70
2022/06/17 15:06:35;;;;;;;6.40;3.65;;;;;;;;;;4958449;28;20116;-70
2022/06/17 15:09:00;;;;;;;6.03;3.58;;;;;;;;;;4959756;28;20432;-73
2022/06/17 15:11:27;;;;;;;3.50;3.30;;;;;;;;;;4962543;28;20023;-70
2022/06/17 15:14:10;;;;;;;4.15;3.80;;;;;;;;;;4957672;28;20031;-69
2022/06/17 15:16:54;;;;;;;3.97;3.72;;;;;;;;;;4959429;28;20041;-70